Time;durP1;ratioP1;P1;durP2;ratioP2;P2;SDS_P1;SDS_P2;PMS_P1;PMS_P2;Temp;Humidity;BMP_temperature;BMP_pressure;BME280_temperature;BME280_humidity;BME280_pressure;Samples;Min_cycle;Max_cycle;Signal;HPM_P1;HPM_P2
2021/08/27 00:02:23;;;;;;;9.40;2.75;;;;;;;14.24;60.22;99784.78;10447081;28;20132;-58
2021/08/27 00:07:24;;;;;;;5.90;2.20;;;;;;;14.25;59.99;99773.28;10447212;28;20107;-58
2021/08/27 00:12:26;;;;;;;8.07;2.47;;;;;;;14.18;59.98;99778.22;10447502;28;20562;-59
2021/08/27 00:17:31;;;;;;;8.40;2.20;;;;;;;14.08;59.99;99773.78;10447278;28;20146;-58
2021/08/27 00:22:32;;;;;;;7.55;2.50;;;;;;;14.01;60.12;99768.13;10446721;28;20079;-59
2021/08/27 00:27:35;;;;;;;6.13;2.22;;;;;;;13.92;60.10;99774.13;10447454;28;20103;-59
2021/08/27 00:32:36;;;;;;;7.03;2.30;;;;;;;13.89;60.12;99770.84;10446557;28;20081;-58
2021/08/27 00:37:38;;;;;;;5.70;2.25;;;;;;;13.86;60.29;99773.72;10446688;28;20968;-59
2021/08/27 00:42:40;;;;;;;6.05;2.20;;;;;;;13.81;60.55;99778.47;10445936;28;20052;-59
2021/08/27 00:47:42;;;;;;;6.97;2.55;;;;;;;13.70;60.77;99771.41;10446484;28;20080;-59
2021/08/27 00:52:44;;;;;;;5.32;2.28;;;;;;;13.47;61.35;99770.50;10443644;28;20168;-59
2021/08/27 00:57:45;;;;;;;8.73;2.88;;;;;;;13.38;61.34;99773.78;10446046;28;20131;-59
2021/08/27 01:02:47;;;;;;;6.97;2.50;;;;;;;12.98;61.79;99771.53;10444695;28;20457;-59
2021/08/27 01:08:18;;;;;;;6.97;2.50;;;;;;;12.89;62.35;99768.63;10445138;28;20053;-58
2021/08/27 01:13:33;;;;;;;7.50;2.60;;;;;;;12.92;62.21;99780.69;10445479;28;20565;-58
2021/08/27 01:18:43;;;;;;;7.60;2.63;;;;;;;12.99;62.09;99776.66;10444563;28;20565;-58
2021/08/27 01:23:52;;;;;;;9.70;2.92;;;;;;;12.78;62.14;99786.91;10443057;28;20079;-58
2021/08/27 01:28:55;;;;;;;7.57;2.70;;;;;;;12.76;62.33;99783.56;10444676;28;20115;-59
2021/08/27 01:34:05;;;;;;;8.10;2.53;;;;;;;12.73;62.77;99781.16;10434281;28;20128;-59
2021/08/27 01:39:08;;;;;;;;;;;;;;;12.27;63.73;99787.06;10443855;28;20084;-59
2021/08/27 01:44:12;;;;;;;10.35;4.10;;;;;;;12.50;63.20;99788.97;10440949;28;20479;-59
2021/08/27 01:49:16;;;;;;;9.15;2.90;;;;;;;12.49;63.55;99796.00;10444572;28;20128;-59
2021/08/27 01:54:19;;;;;;;8.40;2.90;;;;;;;12.66;63.40;99797.47;10444494;28;20107;-59
2021/08/27 01:59:22;;;;;;;6.72;2.72;;;;;;;12.58;63.44;99797.13;10441949;28;20187;-59
2021/08/27 02:04:25;;;;;;;7.88;2.95;;;;;;;12.39;63.80;99799.38;10449109;28;20088;-59
2021/08/27 02:09:27;;;;;;;7.82;3.00;;;;;;;12.37;63.79;99802.09;10459070;28;20118;-59
2021/08/27 02:14:30;;;;;;;10.85;3.30;;;;;;;12.46;63.82;99805.84;10435679;28;20128;-59
2021/08/27 02:19:32;;;;;;;10.48;2.80;;;;;;;12.56;63.74;99812.97;10458489;28;20505;-59
2021/08/27 02:25:02;;;;;;;8.93;3.10;;;;;;;12.38;64.46;99809.00;10460439;28;20461;-59
2021/08/27 02:30:05;;;;;;;7.00;3.10;;;;;;;12.41;64.06;99813.22;10455245;28;20072;-59
2021/08/27 02:35:09;;;;;;;9.75;3.60;;;;;;;12.56;63.91;99812.13;10460058;28;20060;-59
2021/08/27 02:40:12;;;;;;;10.38;3.60;;;;;;;12.55;63.85;99798.22;10459876;28;20083;-59
2021/08/27 02:45:13;;;;;;;9.43;4.13;;;;;;;12.48;63.90;99802.19;10458391;28;20468;-59
2021/08/27 02:50:16;;;;;;;10.23;4.30;;;;;;;12.38;63.92;99802.94;10457992;28;20541;-59
2021/08/27 02:55:21;;;;;;;9.63;5.13;;;;;;;12.28;64.26;99800.09;10459136;28;20095;-59
2021/08/27 03:00:25;;;;;;;14.05;5.78;;;;;;;12.28;64.83;99792.25;10458905;28;20442;-59
2021/08/27 03:05:34;;;;;;;13.50;5.72;;;;;;;12.35;65.05;99790.88;10432211;28;20050;-59
2021/08/27 03:10:57;;;;;;;13.13;5.63;;;;;;;12.28;65.58;99792.25;10450893;28;20136;-59
2021/08/27 03:16:04;;;;;;;11.13;5.05;;;;;;;12.28;65.72;99797.50;10451287;28;20520;-59
2021/08/27 03:21:15;;;;;;;11.25;5.00;;;;;;;12.31;65.50;99796.44;10450720;28;20091;-59
2021/08/27 03:26:22;;;;;;;14.73;4.63;;;;;;;12.40;65.20;99783.53;10450852;28;20131;-59
2021/08/27 03:31:26;;;;;;;12.60;3.80;;;;;;;12.44;64.92;99790.22;10450802;28;20041;-59
2021/08/27 03:36:30;;;;;;;13.65;4.05;;;;;;;12.47;64.79;99791.81;10449519;28;20052;-59
2021/08/27 03:41:36;;;;;;;12.90;3.80;;;;;;;12.47;64.57;99787.41;10450214;28;20124;-58
2021/08/27 03:46:38;;;;;;;8.82;3.42;;;;;;;12.54;64.33;99798.28;10450584;28;20080;-59
2021/08/27 03:51:40;;;;;;;8.52;3.85;;;;;;;12.67;64.08;99786.84;10449982;28;20083;-59
2021/08/27 03:56:50;;;;;;;9.07;3.50;;;;;;;12.71;63.80;99788.31;10450287;28;20056;-59
2021/08/27 04:01:53;;;;;;;8.52;3.28;;;;;;;12.91;63.78;99800.00;10449366;28;20045;-59
2021/08/27 04:07:02;;;;;;;13.43;3.45;;;;;;;12.99;63.67;99800.28;10424258;28;20053;-59
2021/08/27 04:12:06;;;;;;;10.90;4.10;;;;;;;13.04;63.32;99798.19;10408098;28;20091;-59
2021/08/27 04:17:07;;;;;;;10.55;3.30;;;;;;;13.10;63.29;99797.75;10407914;28;20057;-59
2021/08/27 04:22:09;;;;;;;10.23;3.70;;;;;;;13.13;63.13;99796.69;10406566;28;20120;-59
2021/08/27 04:27:11;;;;;;;9.20;3.35;;;;;;;13.21;62.94;99778.59;10407532;28;20502;-59
2021/08/27 04:32:12;;;;;;;8.48;4.25;;;;;;;13.24;62.79;99780.97;10406726;28;20077;-59
2021/08/27 04:37:14;;;;;;;13.60;4.57;;;;;;;13.33;62.49;99794.28;10444717;28;20102;-59
2021/08/27 04:42:16;;;;;;;9.15;3.80;;;;;;;13.39;62.60;99801.69;10447769;28;20560;-59
2021/08/27 04:47:18;;;;;;;12.68;3.95;;;;;;;13.43;62.42;99797.13;10448086;28;20102;-59
2021/08/27 04:52:19;;;;;;;12.55;4.20;;;;;;;13.41;62.14;99809.50;10447462;28;20076;-59
2021/08/27 04:57:23;;;;;;;12.68;4.20;;;;;;;13.38;62.53;99814.97;10447457;28;20525;-59
2021/08/27 05:02:25;;;;;;;11.85;5.43;;;;;;;13.47;62.21;99823.06;10447370;28;20091;-59
2021/08/27 05:07:27;;;;;;;10.40;5.53;;;;;;;13.45;62.37;99826.75;10420253;28;20048;-59
2021/08/27 05:12:29;;;;;;;12.95;5.20;;;;;;;13.48;62.35;99829.13;10445542;28;20083;-59
2021/08/27 05:17:31;;;;;;;11.48;6.15;;;;;;;13.58;62.23;99835.38;10446577;28;20489;-59
2021/08/27 05:22:33;;;;;;;21.00;10.32;;;;;;;13.67;62.02;99832.09;10446325;28;20472;-59
2021/08/27 05:27:37;;;;;;;12.88;7.72;;;;;;;13.75;61.82;99827.94;10445188;28;20132;-59
2021/08/27 05:32:38;;;;;;;15.05;7.78;;;;;;;13.86;61.53;99832.38;10446917;28;20131;-59
2021/08/27 05:37:41;;;;;;;12.98;7.03;;;;;;;13.94;61.45;99853.72;10445189;28;20139;-59
2021/08/27 05:42:45;;;;;;;11.52;7.55;;;;;;;13.99;61.23;99845.44;10444985;28;20072;-59
2021/08/27 05:47:47;;;;;;;15.43;6.90;;;;;;;14.13;60.87;99853.13;10444606;28;20132;-59
2021/08/27 05:52:48;;;;;;;12.32;7.57;;;;;;;14.30;60.60;99847.44;10446189;28;20056;-59
2021/08/27 05:57:50;;;;;;;15.63;7.80;;;;;;;14.33;60.73;99860.38;10445927;28;20057;-60
2021/08/27 06:02:52;;;;;;;13.55;7.63;;;;;;;14.52;60.23;99858.88;10428566;28;20046;-59
2021/08/27 06:07:55;;;;;;;12.63;7.82;;;;;;;14.70;60.14;99859.25;10420875;28;20052;-59
2021/08/27 06:12:56;;;;;;;15.90;8.73;;;;;;;14.82;59.73;99857.47;10445153;28;20555;-59
2021/08/27 06:17:58;;;;;;;14.98;8.40;;;;;;;14.99;59.19;99851.69;10445350;28;20059;-59
2021/08/27 06:23:00;;;;;;;14.85;8.50;;;;;;;15.19;58.72;99850.94;10445989;28;20127;-58
2021/08/27 06:28:02;;;;;;;15.27;8.70;;;;;;;15.32;58.57;99851.66;10445146;28;20565;-59
2021/08/27 06:33:04;;;;;;;13.60;7.75;;;;;;;15.49;57.84;99851.13;10413994;28;20128;-59
2021/08/27 06:43:26;;;;;;;13.82;7.35;;;;;;;15.63;57.57;99856.16;10445311;28;20480;-59
2021/08/27 06:48:29;;;;;;;13.38;7.72;;;;;;;15.70;57.31;99854.66;10444841;28;20153;-59
2021/08/27 06:53:31;;;;;;;10.63;6.88;;;;;;;16.04;56.33;99861.47;10448716;28;20103;-58
2021/08/27 06:58:33;;;;;;;9.73;5.65;;;;;;;16.60;55.13;99856.72;10451065;28;20055;-58
2021/08/27 07:03:35;;;;;;;7.63;4.57;;;;;;;16.60;54.39;99861.16;10430603;28;20049;-58
2021/08/27 07:08:36;;;;;;;9.30;4.75;;;;;;;16.38;54.46;99866.56;10432695;28;20057;-58
2021/08/27 07:13:38;;;;;;;9.00;5.18;;;;;;;16.43;54.81;99864.34;10450702;28;20091;-58
2021/08/27 07:18:40;;;;;;;11.25;5.60;;;;;;;16.48;54.44;99862.19;10451380;28;20080;-58
2021/08/27 07:23:42;;;;;;;10.73;5.38;;;;;;;16.40;54.63;99860.19;10450897;28;20103;-58
2021/08/27 07:28:43;;;;;;;11.27;6.15;;;;;;;16.40;54.45;99869.91;10451998;28;20072;-58
2021/08/27 07:33:45;;;;;;;10.65;5.57;;;;;;;16.63;53.99;99884.66;10450948;28;20068;-59
2021/08/27 07:38:47;;;;;;;14.07;6.13;;;;;;;16.86;53.15;99886.16;10444575;28;20470;-58
2021/08/27 07:43:49;;;;;;;13.63;6.18;;;;;;;16.99;52.75;99877.06;10409426;28;20141;-58
2021/08/27 07:48:50;;;;;;;10.35;5.70;;;;;;;17.37;52.03;99881.63;10425953;28;20064;-58
2021/08/27 07:53:52;;;;;;;8.55;5.05;;;;;;;18.09;51.04;99879.47;10448432;28;20084;-58
2021/08/27 07:58:54;;;;;;;9.30;5.20;;;;;;;18.37;50.06;99861.91;10447704;28;20604;-58
2021/08/27 08:03:56;;;;;;;10.98;5.15;;;;;;;19.07;48.67;99849.00;10446466;28;20598;-58
2021/08/27 08:08:58;;;;;;;7.82;5.38;;;;;;;19.42;47.26;99867.63;10440606;28;20549;-59
2021/08/27 08:14:01;;;;;;;12.00;5.82;;;;;;;19.52;47.32;99874.69;10445861;28;20088;-58
2021/08/27 08:19:03;;;;;;;30.85;7.18;;;;;;;18.73;48.41;99869.03;10446496;28;20128;-58
2021/08/27 08:24:05;;;;;;;10.50;5.32;;;;;;;18.58;48.77;99881.09;10447175;28;20049;-59
2021/08/27 08:29:07;;;;;;;10.52;5.55;;;;;;;18.52;48.69;99885.13;10447449;28;20140;-59
2021/08/27 08:34:09;;;;;;;8.80;5.70;;;;;;;17.92;49.49;99884.59;10447138;28;20127;-58
2021/08/27 08:39:11;;;;;;;8.57;6.18;;;;;;;17.56;50.28;99894.91;10413523;28;20140;-58
2021/08/27 08:44:12;;;;;;;11.88;6.35;;;;;;;17.38;50.50;99888.59;10445931;28;20080;-58
2021/08/27 08:49:19;;;;;;;9.57;6.32;;;;;;;17.30;51.14;99895.50;10446611;28;20124;-58
2021/08/27 08:54:21;;;;;;;10.82;7.30;;;;;;;17.31;50.96;99899.81;10447548;28;20132;-58
2021/08/27 08:59:23;;;;;;;11.95;7.38;;;;;;;17.56;50.48;99891.41;10447309;28;20092;-59
2021/08/27 09:04:27;;;;;;;12.07;6.93;;;;;;;17.79;50.58;99892.84;10445158;28;20556;-61
2021/08/27 09:09:31;;;;;;;11.27;7.47;;;;;;;17.60;50.34;99893.66;10441667;28;20103;-61
2021/08/27 09:14:32;;;;;;;12.68;7.70;;;;;;;17.96;49.74;99883.34;10446314;28;20080;-61
2021/08/27 09:19:51;;;;;;;12.65;8.18;;;;;;;18.27;48.87;99883.09;10446692;28;20080;-61
2021/08/27 09:25:07;;;;;;;11.07;7.35;;;;;;;18.61;48.07;99888.75;10445195;28;20494;-61
2021/08/27 09:30:10;;;;;;;9.57;6.57;;;;;;;18.61;48.39;99888.75;10445978;28;20091;-61
2021/08/27 09:35:16;;;;;;;11.30;6.22;;;;;;;18.36;48.41;99892.00;10435086;28;20096;-60
2021/08/27 09:40:26;;;;;;;10.70;6.00;;;;;;;18.23;48.25;99889.66;10422488;28;20081;-61
2021/08/27 09:45:41;;;;;;;10.23;5.90;;;;;;;17.78;48.69;99892.00;10445628;28;20124;-61
2021/08/27 09:50:44;;;;;;;9.07;5.97;;;;;;;18.08;49.14;99887.53;10445325;28;20445;-61
2021/08/27 09:55:57;;;;;;;12.38;5.68;;;;;;;17.91;48.86;99885.59;10445788;28;20132;-61
2021/08/27 10:01:07;;;;;;;10.95;5.63;;;;;;;17.85;48.87;99882.53;10414916;28;20133;-61
2021/08/27 10:06:30;;;;;;;12.63;7.43;;;;;;;18.20;48.48;99879.34;10406640;28;20445;-61
2021/08/27 10:11:32;;;;;;;14.15;7.38;;;;;;;18.67;47.98;99874.91;10445094;28;20072;-61
2021/08/27 10:16:34;;;;;;;10.10;6.38;;;;;;;18.92;46.86;99868.13;10460030;28;20052;-61
2021/08/27 10:21:36;;;;;;;10.70;5.93;;;;;;;19.21;46.20;99863.56;10426291;28;20133;-61
2021/08/27 10:26:40;;;;;;;10.50;5.80;;;;;;;19.69;45.33;99860.59;10429554;28;20554;-61
2021/08/27 10:31:48;;;;;;;10.82;5.63;;;;;;;19.71;44.93;99855.97;10451382;28;20057;-61
2021/08/27 10:36:51;;;;;;;7.55;5.57;;;;;;;19.53;45.27;99852.47;10451749;28;20068;-61
2021/08/27 10:41:53;;;;;;;11.48;6.07;;;;;;;19.63;45.24;99853.22;10450949;28;20077;-61
2021/08/27 10:47:04;;;;;;;11.07;6.75;;;;;;;19.76;44.61;99849.22;10453278;28;20077;-61
2021/08/27 10:52:27;;;;;;;10.45;6.32;;;;;;;20.13;43.73;99833.97;10450545;28;20045;-61
2021/08/27 10:57:30;;;;;;;8.55;5.13;;;;;;;20.76;43.32;99829.25;10425107;28;20490;-61
2021/08/27 11:02:51;;;;;;;8.35;4.80;;;;;;;20.81;41.96;99832.25;10410563;28;20062;-61
2021/08/27 11:08:00;;;;;;;7.47;4.60;;;;;;;20.89;42.28;99821.66;10427017;28;20053;-61
2021/08/27 11:13:08;;;;;;;6.40;4.70;;;;;;;20.48;42.15;99827.72;10450933;28;20068;-60
2021/08/27 11:18:16;;;;;;;7.95;4.93;;;;;;;20.36;42.81;99826.31;10412252;28;20093;-60
2021/08/27 11:23:18;;;;;;;10.43;5.20;;;;;;;20.23;43.82;99836.53;10425392;28;20080;-61
2021/08/27 11:28:24;;;;;;;7.55;4.18;;;;;;;19.95;44.05;99827.84;10409613;28;20124;-61
2021/08/27 11:33:41;;;;;;;7.72;3.95;;;;;;;19.59;44.52;99825.34;10409688;28;20136;-60
2021/08/27 11:38:43;;;;;;;7.20;4.28;;;;;;;19.58;45.15;99823.69;10408881;28;20460;-60
2021/08/27 11:43:48;;;;;;;7.22;4.30;;;;;;;19.85;44.63;99815.66;10409660;28;20083;-60
2021/08/27 11:49:01;;;;;;;7.18;3.88;;;;;;;19.98;44.68;99822.25;10447256;28;20084;-60
2021/08/27 11:54:35;;;;;;;6.05;4.20;;;;;;;19.43;45.09;99816.25;10449997;28;20076;-61
2021/08/27 11:59:37;;;;;;;7.18;4.15;;;;;;;19.44;46.38;99809.94;10416073;28;20052;-60
2021/08/27 12:04:39;;;;;;;7.50;4.00;;;;;;;19.83;45.62;99807.00;10449547;28;20068;-60
2021/08/27 12:09:41;;;;;;;5.57;3.65;;;;;;;19.98;45.06;99806.31;10446713;28;20087;-61
2021/08/27 12:14:52;;;;;;;6.85;3.92;;;;;;;20.05;44.90;99804.69;10448319;28;20553;-60
2021/08/27 12:19:57;;;;;;;5.50;3.30;;;;;;;19.95;44.17;99805.81;10448960;28;20099;-60
2021/08/27 12:25:00;;;;;;;6.40;3.30;;;;;;;20.04;44.25;99808.34;10448538;28;20128;-61
2021/08/27 12:30:24;;;;;;;6.30;3.45;;;;;;;19.90;44.16;99802.75;10461116;28;20056;-61
2021/08/27 12:35:47;;;;;;;6.70;4.10;;;;;;;19.83;44.72;99807.84;10460862;28;20049;-61
2021/08/27 12:40:49;;;;;;;6.93;3.63;;;;;;;19.54;44.80;99799.28;10446777;28;20522;-61
2021/08/27 12:45:55;;;;;;;6.13;3.30;;;;;;;19.63;44.99;99793.03;10448306;28;20045;-62
2021/08/27 12:50:59;;;;;;;8.32;4.07;;;;;;;19.30;47.10;99820.22;10447034;28;20095;-61
2021/08/27 12:56:09;;;;;;;4.68;2.92;;;;;;;18.55;51.62;99829.22;10447035;28;20504;-61
2021/08/27 13:01:25;;;;;;;5.28;2.83;;;;;;;18.37;51.24;99808.94;10410438;28;20452;-61
2021/08/27 13:06:34;;;;;;;5.00;2.60;;;;;;;18.57;51.00;99794.66;10410533;28;20056;-61
2021/08/27 13:11:50;;;;;;;4.53;2.30;;;;;;;18.98;50.16;99796.81;10445977;28;20053;-61
2021/08/27 13:17:05;;;;;;;5.80;2.47;;;;;;;19.07;49.71;99806.59;10446692;28;20118;-61
2021/08/27 13:22:25;;;;;;;9.00;2.53;;;;;;;19.01;50.09;99808.97;10446676;28;20083;-61
2021/08/27 13:27:27;;;;;;;6.43;2.00;;;;;;;19.26;49.28;99793.19;10473475;28;20049;-61
2021/08/27 13:32:41;;;;;;;4.63;2.10;;;;;;;19.72;48.18;99778.03;10443883;28;20475;-61
2021/08/27 13:37:44;;;;;;;4.78;2.15;;;;;;;20.11;47.10;99782.03;10436912;28;20486;-61
2021/08/27 13:42:47;;;;;;;8.18;2.10;;;;;;;20.16;46.92;99785.03;10440198;28;20052;-62
2021/08/27 13:47:48;;;;;;;4.50;1.90;;;;;;;19.94;46.82;99781.06;10427984;28;20136;-62
2021/08/27 13:52:50;;;;;;;4.85;1.80;;;;;;;20.02;46.48;99783.78;10426972;28;20084;-62
2021/08/27 13:57:52;;;;;;;5.30;2.10;;;;;;;20.24;45.87;99782.44;10440371;28;20764;-61
2021/08/27 14:02:54;;;;;;;4.78;1.60;;;;;;;20.05;45.72;99767.53;10436772;28;20069;-61
2021/08/27 14:07:56;;;;;;;3.80;1.63;;;;;;;19.92;46.20;99764.47;10448991;28;20044;-61
2021/08/27 14:12:59;;;;;;;3.67;1.52;;;;;;;19.98;45.78;99763.00;10444938;28;20088;-62
2021/08/27 14:18:00;;;;;;;5.28;2.00;;;;;;;19.81;46.34;99769.13;10446496;28;20139;-62
2021/08/27 14:23:04;;;;;;;4.57;1.60;;;;;;;19.40;47.09;99774.09;10458312;28;20036;-62
2021/08/27 14:28:07;;;;;;;4.47;2.00;;;;;;;19.14;47.45;99767.03;10438464;28;20049;-62
2021/08/27 14:33:08;;;;;;;5.45;1.70;;;;;;;19.37;47.44;99773.56;10444345;28;20164;-62
2021/08/27 14:38:11;;;;;;;6.25;1.80;;;;;;;19.54;47.42;99767.44;10438652;28;20528;-60
2021/08/27 14:43:12;;;;;;;3.80;1.73;;;;;;;19.79;47.04;99777.25;10448580;28;20049;-61
2021/08/27 14:48:14;;;;;;;5.78;1.90;;;;;;;19.85;46.63;99781.13;10448106;28;20456;-61
2021/08/27 14:53:17;;;;;;;4.07;1.80;;;;;;;19.68;47.02;99772.22;10447935;28;20522;-61
2021/08/27 14:58:19;;;;;;;5.28;2.00;;;;;;;19.58;47.43;99779.44;10442458;28;20099;-61
2021/08/27 15:03:21;;;;;;;3.58;1.40;;;;;;;19.04;47.56;99788.31;10431000;28;20145;-60
2021/08/27 15:08:23;;;;;;;10.43;1.70;;;;;;;18.81;48.96;99784.34;10441899;28;20053;-61
2021/08/27 15:13:25;;;;;;;5.93;1.70;;;;;;;18.80;49.31;99779.22;10445594;28;20481;-60
2021/08/27 15:18:27;;;;;;;4.63;1.50;;;;;;;18.74;49.65;99770.03;10432511;28;20562;-61
2021/08/27 15:23:29;;;;;;;4.20;1.60;;;;;;;18.55;51.99;99767.47;10461374;28;20041;-61
2021/08/27 15:28:31;;;;;;;5.32;1.70;;;;;;;18.40;52.05;99782.19;10443875;28;20144;-61
2021/08/27 15:33:32;;;;;;;5.57;1.70;;;;;;;18.54;51.64;99777.22;10426137;28;20084;-61
2021/08/27 15:38:34;;;;;;;6.00;1.80;;;;;;;18.53;51.97;99772.94;10456447;28;20570;-61
2021/08/27 15:43:36;;;;;;;8.63;1.90;;;;;;;18.63;51.43;99768.41;10421108;28;20056;-61
2021/08/27 15:48:38;;;;;;;4.75;1.83;;;;;;;18.43;52.28;99781.88;10443010;28;20080;-61
2021/08/27 15:53:43;;;;;;;7.05;1.90;;;;;;;18.59;52.41;99777.63;10444753;28;20390;-61
2021/08/27 15:58:46;;;;;;;6.22;2.00;;;;;;;18.70;52.00;99786.38;10445383;28;20087;-60
2021/08/27 16:03:48;;;;;;;6.70;2.00;;;;;;;18.73;52.43;99788.75;10435332;28;20056;-60
2021/08/27 16:08:50;;;;;;;4.63;1.73;;;;;;;18.74;52.59;99785.94;10442796;28;20133;-62
2021/08/27 16:13:54;;;;;;;5.25;1.95;;;;;;;18.72;52.48;99782.59;10445986;28;20051;-62
2021/08/27 16:18:56;;;;;;;8.07;2.00;;;;;;;18.79;52.81;99790.81;10460146;28;20533;-62
2021/08/27 16:24:00;;;;;;;5.18;2.10;;;;;;;19.08;52.26;99789.69;10430813;28;20556;-63
2021/08/27 16:29:05;;;;;;;7.40;2.22;;;;;;;18.92;52.85;99793.94;10430281;28;20051;-61
2021/08/27 16:34:07;;;;;;;5.35;2.10;;;;;;;18.85;52.93;99803.47;10435466;28;20072;-62
2021/08/27 16:39:09;;;;;;;5.15;2.58;;;;;;;18.85;52.54;99804.28;10438350;28;20059;-62
2021/08/27 16:44:11;;;;;;;5.22;2.10;;;;;;;18.63;53.35;99805.50;10439368;28;20144;-61
2021/08/27 16:49:12;;;;;;;8.32;2.60;;;;;;;18.25;54.21;99800.34;10444954;28;20128;-61
2021/08/27 16:54:14;;;;;;;5.93;2.65;;;;;;;17.99;54.92;99809.00;10443755;28;20497;-61
2021/08/27 16:59:16;;;;;;;7.18;3.75;;;;;;;17.78;56.63;99802.06;10439210;28;20053;-62
2021/08/27 17:04:18;;;;;;;6.35;4.13;;;;;;;17.60;57.87;99803.75;10421370;28;20080;-62
2021/08/27 17:09:20;;;;;;;11.95;6.07;;;;;;;17.52;59.28;99811.53;10430984;28;20537;-62
2021/08/27 17:14:22;;;;;;;13.45;5.32;;;;;;;17.49;59.64;99811.78;10442262;28;20469;-62
2021/08/27 17:19:23;;;;;;;10.35;5.93;;;;;;;17.55;60.10;99800.66;10442709;28;20147;-62
2021/08/27 17:24:25;;;;;;;9.10;4.97;;;;;;;17.60;60.70;99811.66;10443628;28;20045;-62
2021/08/27 17:29:27;;;;;;;7.70;5.35;;;;;;;17.60;60.83;99813.47;10440940;28;20132;-62
2021/08/27 17:34:29;;;;;;;6.75;4.22;;;;;;;17.44;60.79;99815.84;10436493;28;20136;-62
2021/08/27 17:39:31;;;;;;;6.80;4.03;;;;;;;17.39;61.03;99810.94;10418141;28;20079;-62
2021/08/27 17:44:32;;;;;;;7.78;4.47;;;;;;;17.16;61.98;99829.81;10441694;28;20123;-62
2021/08/27 17:49:35;;;;;;;6.22;3.72;;;;;;;16.99;61.60;99826.84;10428997;28;20477;-62
2021/08/27 17:54:38;;;;;;;9.18;3.25;;;;;;;16.94;61.17;99838.78;10425842;28;20061;-62
2021/08/27 17:59:39;;;;;;;8.07;3.28;;;;;;;16.84;61.42;99845.81;10424743;28;20140;-61
2021/08/27 18:04:41;;;;;;;5.13;3.22;;;;;;;16.69;61.63;99844.53;10416207;28;20136;-61
2021/08/27 18:09:43;;;;;;;4.45;2.17;;;;;;;16.53;61.67;99846.81;10428916;28;20061;-61
2021/08/27 18:14:45;;;;;;;9.55;2.90;;;;;;;16.39;61.78;99850.56;10426550;28;20129;-61
2021/08/27 18:19:46;;;;;;;4.75;2.17;;;;;;;16.21;62.03;99850.34;10434130;28;20136;-61
2021/08/27 18:24:48;;;;;;;5.15;2.45;;;;;;;16.08;62.30;99859.44;10440255;28;20147;-61
2021/08/27 18:29:50;;;;;;;4.68;2.05;;;;;;;15.89;62.67;99857.47;10421137;28;20129;-62
2021/08/27 18:34:53;;;;;;;6.38;2.83;;;;;;;15.93;62.82;99860.69;10433554;28;20470;-61
2021/08/27 18:40:02;;;;;;;;;;;;;;;15.59;64.10;99856.50;10426262;28;20048;-62
2021/08/27 18:45:05;;;;;;;6.95;3.05;;;;;;;15.93;63.03;99858.91;10433898;28;19964;-61
2021/08/27 18:50:09;;;;;;;7.18;3.00;;;;;;;15.93;63.18;99866.81;10435377;28;20080;-61
2021/08/27 18:55:11;;;;;;;7.45;3.42;;;;;;;16.00;63.38;99873.22;10439546;28;20151;-62
2021/08/27 19:00:13;;;;;;;6.60;3.15;;;;;;;16.00;63.20;99882.94;10418358;28;20482;-62
2021/08/27 19:05:16;;;;;;;7.32;4.20;;;;;;;15.92;63.07;99886.22;10442072;28;20048;-62
2021/08/27 19:10:18;;;;;;;11.43;6.15;;;;;;;15.75;63.29;99892.06;10429742;28;20128;-62
2021/08/27 19:15:20;;;;;;;8.32;4.93;;;;;;;15.70;63.40;99896.00;10447168;28;20080;-62
2021/08/27 19:20:22;;;;;;;7.53;5.10;;;;;;;15.75;63.34;99892.06;10420932;28;20052;-65
2021/08/27 19:25:24;;;;;;;7.80;5.15;;;;;;;15.79;63.07;99900.53;10433993;28;20868;-65
2021/08/27 19:30:26;;;;;;;8.10;6.00;;;;;;;15.77;63.18;99910.38;10444904;28;20073;-65
2021/08/27 19:35:28;;;;;;;10.40;6.57;;;;;;;15.80;62.91;99905.69;10447415;28;20106;-65
2021/08/27 19:40:41;;;;;;;8.63;5.60;;;;;;;15.86;62.87;99915.72;10447398;28;20477;-65
2021/08/27 19:45:42;;;;;;;7.35;5.13;;;;;;;15.81;63.29;99917.06;10447113;28;20127;-65
2021/08/27 19:50:45;;;;;;;8.85;6.28;;;;;;;15.87;63.24;99914.78;10448354;28;20510;-65
2021/08/27 19:55:47;;;;;;;8.20;5.75;;;;;;;15.73;63.18;99908.97;10447766;28;20118;-65
2021/08/27 20:00:50;;;;;;;9.27;6.80;;;;;;;15.68;63.29;99917.22;10447726;28;20175;-65
2021/08/27 20:05:52;;;;;;;7.82;6.03;;;;;;;15.71;63.17;99922.28;10444867;28;20045;-65
2021/08/27 20:10:54;;;;;;;10.98;5.93;;;;;;;15.63;63.19;99923.84;10420894;28;20049;-65
2021/08/27 20:15:57;;;;;;;8.77;5.40;;;;;;;15.67;63.40;99923.47;10426408;28;20107;-65
2021/08/27 20:20:59;;;;;;;8.10;5.45;;;;;;;15.66;63.25;99920.94;10410909;28;20719;-65
2021/08/27 20:26:00;;;;;;;8.07;5.18;;;;;;;15.72;63.25;99931.00;10435413;28;20123;-65
2021/08/27 20:31:02;;;;;;;5.82;4.30;;;;;;;15.73;62.99;99930.06;10446452;28;20052;-65
2021/08/27 20:36:04;;;;;;;8.20;4.32;;;;;;;15.70;62.95;99936.41;10446825;28;20049;-65
2021/08/27 20:41:06;;;;;;;6.43;4.20;;;;;;;15.72;62.99;99942.38;10445713;28;20080;-66
2021/08/27 20:46:08;;;;;;;9.98;6.30;;;;;;;15.67;62.76;99944.56;10445860;28;20330;-65
2021/08/27 20:51:10;;;;;;;8.05;4.18;;;;;;;15.59;62.87;99939.06;10432647;28;20554;-65
2021/08/27 20:56:11;;;;;;;6.85;4.15;;;;;;;15.65;62.93;99932.47;10452040;28;20068;-65
2021/08/27 21:01:13;;;;;;;6.55;3.58;;;;;;;15.61;62.93;99942.44;10445460;28;20136;-65
2021/08/27 21:06:15;;;;;;;8.05;4.10;;;;;;;15.59;62.57;99943.50;10445350;28;20057;-66
2021/08/27 21:11:17;;;;;;;6.13;3.60;;;;;;;15.57;62.67;99933.06;10437651;28;20081;-66
2021/08/27 21:16:19;;;;;;;8.10;3.85;;;;;;;15.63;62.72;99948.41;10444571;28;20139;-65
2021/08/27 21:21:20;;;;;;;8.75;4.90;;;;;;;15.70;62.33;99946.09;10442585;28;20131;-65
2021/08/27 21:26:22;;;;;;;10.02;4.60;;;;;;;15.76;62.28;99956.16;10443712;28;20071;-65
2021/08/27 21:31:24;;;;;;;7.97;4.10;;;;;;;15.72;62.18;99952.94;10443891;28;20141;-66
2021/08/27 21:36:25;;;;;;;9.57;5.03;;;;;;;15.79;62.18;99955.91;10439360;28;20045;-66
2021/08/27 21:41:27;;;;;;;6.68;4.65;;;;;;;15.64;62.67;99958.00;10441111;28;20081;-66
2021/08/27 21:46:29;;;;;;;12.60;6.57;;;;;;;15.66;63.52;99963.13;10441577;28;20075;-65
2021/08/27 21:51:31;;;;;;;8.77;5.80;;;;;;;15.51;63.23;99967.81;10442290;28;20474;-65
2021/08/27 21:56:33;;;;;;;10.50;6.63;;;;;;;15.46;64.09;99945.41;10441961;28;20084;-65
2021/08/27 22:01:35;;;;;;;10.23;7.03;;;;;;;15.38;64.24;99952.13;10435938;28;20056;-65
2021/08/27 22:06:37;;;;;;;11.48;7.60;;;;;;;15.35;65.06;99954.16;10442157;28;20049;-66
2021/08/27 22:11:39;;;;;;;9.93;6.65;;;;;;;15.39;64.48;99948.53;10440201;28;20147;-65
2021/08/27 22:16:41;;;;;;;11.23;7.18;;;;;;;15.38;64.22;99956.56;10435889;28;20079;-65
2021/08/27 22:21:43;;;;;;;12.50;6.20;;;;;;;15.31;64.56;99952.72;10441334;28;20089;-65
2021/08/27 22:26:44;;;;;;;10.82;8.43;;;;;;;15.39;65.00;99952.94;10444181;28;20076;-65
2021/08/27 22:31:46;;;;;;;12.80;8.48;;;;;;;15.37;64.87;99955.72;10450145;28;20132;-65
2021/08/27 22:36:48;;;;;;;15.93;9.73;;;;;;;15.34;65.68;99955.13;10450722;28;20084;-65
2021/08/27 22:41:50;;;;;;;12.85;9.57;;;;;;;15.38;65.59;99944.22;10450142;28;20481;-65
2021/08/27 22:46:52;;;;;;;18.33;12.93;;;;;;;15.27;65.88;99946.88;10449096;28;20051;-65
2021/08/27 22:51:54;;;;;;;17.05;10.52;;;;;;;15.25;65.50;99950.56;10449770;28;20440;-65
2021/08/27 22:56:55;;;;;;;14.98;11.93;;;;;;;15.25;65.55;99940.88;10448731;28;20069;-65
2021/08/27 23:01:57;;;;;;;20.42;15.23;;;;;;;15.23;66.04;99936.69;10447794;28;20535;-65
2021/08/27 23:07:01;;;;;;;20.58;15.85;;;;;;;15.12;65.92;99957.78;10447906;28;20049;-65
2021/08/27 23:12:03;;;;;;;16.52;13.18;;;;;;;15.06;65.66;99960.88;10424087;28;20128;-65
2021/08/27 23:17:05;;;;;;;21.92;17.83;;;;;;;14.97;66.18;99956.31;10445811;28;20140;-65
2021/08/27 23:22:07;;;;;;;21.85;17.50;;;;;;;14.92;66.72;99963.75;10448446;28;20144;-65
2021/08/27 23:27:08;;;;;;;18.42;16.48;;;;;;;14.80;66.76;99964.69;10447058;28;20725;-65
2021/08/27 23:32:10;;;;;;;20.15;15.80;;;;;;;14.66;67.34;99968.34;10447840;28;20095;-65